Time;durP1;ratioP1;P1;durP2;ratioP2;P2;SDS_P1;SDS_P2;PMS_P1;PMS_P2;Temp;Humidity;BMP_temperature;BMP_pressure;BME280_temperature;BME280_humidity;BME280_pressure;Samples;Min_cycle;Max_cycle;Signal;HPM_P1;HPM_P2
2023/08/07 00:02:23;;;;;;;6.03;2.60;;;;;;;;;;4994476;28;20227;-94
2023/08/07 00:04:50;;;;;;;6.57;2.63;;;;;;;;;;4993191;28;20060;-94
2023/08/07 00:07:18;;;;;;;7.53;2.83;;;;;;;;;;4995905;28;20057;-92
2023/08/07 00:09:53;;;;;;;5.25;2.80;;;;;;;;;;4991535;28;20544;-92
2023/08/07 00:12:19;;;;;;;5.22;2.45;;;;;;;;;;5021965;28;20031;-93
2023/08/07 00:14:48;;;;;;;13.80;3.10;;;;;;;;;;4998466;28;20036;-93
2023/08/07 00:17:23;;;;;;;10.25;3.25;;;;;;;;;;5014577;28;20145;-93
2023/08/07 00:19:49;;;;;;;7.35;3.00;;;;;;;;;;4988803;28;20042;-92
2023/08/07 00:22:15;;;;;;;5.93;2.85;;;;;;;;;;5010503;28;20085;-91
2023/08/07 00:24:41;;;;;;;12.32;3.80;;;;;;;;;;4992229;28;20410;-92
2023/08/07 00:27:10;;;;;;;7.03;3.20;;;;;;;;;;4988356;28;20031;-92
2023/08/07 00:29:36;;;;;;;13.88;2.85;;;;;;;;;;5009179;28;20094;-93
2023/08/07 00:32:03;;;;;;;9.45;3.03;;;;;;;;;;5020511;28;20093;-93
2023/08/07 00:34:32;;;;;;;7.50;3.28;;;;;;;;;;4999714;28;20171;-93
2023/08/07 00:36:59;;;;;;;9.75;3.15;;;;;;;;;;5015027;28;20030;-93
2023/08/07 00:39:28;;;;;;;9.85;2.80;;;;;;;;;;5013187;28;20468;-93
2023/08/07 00:41:54;;;;;;;6.95;2.80;;;;;;;;;;5003937;28;20056;-94
2023/08/07 00:44:23;;;;;;;6.40;2.53;;;;;;;;;;5002970;28;20029;-94
2023/08/07 00:46:50;;;;;;;9.55;2.28;;;;;;;;;;5002465;28;20079;-95
2023/08/07 00:49:17;;;;;;;6.72;2.90;;;;;;;;;;5015054;28;20041;-94
2023/08/07 00:51:44;;;;;;;5.63;2.70;;;;;;;;;;5000518;28;20497;-94
2023/08/07 00:54:11;;;;;;;4.47;2.40;;;;;;;;;;5012976;28;20479;-94
2023/08/07 00:56:37;;;;;;;7.25;2.72;;;;;;;;;;5013981;28;20088;-95
2023/08/07 00:59:03;;;;;;;7.60;2.53;;;;;;;;;;5012874;28;20458;-95
2023/08/07 01:01:30;;;;;;;4.63;2.30;;;;;;;;;;5005536;28;20026;-94
2023/08/07 01:04:03;;;;;;;4.78;2.20;;;;;;;;;;5014386;28;20621;-95
2023/08/07 01:06:29;;;;;;;5.32;2.33;;;;;;;;;;5011377;28;20022;-94
2023/08/07 01:08:55;;;;;;;5.95;2.50;;;;;;;;;;4992074;28;20092;-94
2023/08/07 01:11:57;;;;;;;8.77;2.67;;;;;;;;;;4993521;28;20448;-94
2023/08/07 01:14:36;;;;;;;3.70;2.33;;;;;;;;;;4972222;28;20035;-94
2023/08/07 01:17:06;;;;;;;7.45;2.10;;;;;;;;;;5012337;28;20448;-95
2023/08/07 01:19:33;;;;;;;8.18;2.72;;;;;;;;;;5009897;28;20389;-94
2023/08/07 01:22:12;;;;;;;5.85;2.30;;;;;;;;;;5013713;28;20475;-94
2023/08/07 01:24:43;;;;;;;10.13;3.00;;;;;;;;;;5017962;28;20033;-94
2023/08/07 01:27:18;;;;;;;5.97;2.70;;;;;;;;;;5019265;28;20021;-94
2023/08/07 01:29:47;;;;;;;4.50;2.33;;;;;;;;;;5028488;28;20064;-95
2023/08/07 01:32:15;;;;;;;6.50;2.83;;;;;;;;;;5011696;28;20054;-94
2023/08/07 01:34:42;;;;;;;11.90;2.78;;;;;;;;;;5025708;28;20021;-94
2023/08/07 01:37:11;;;;;;;6.78;2.45;;;;;;;;;;4995784;28;20061;-94
2023/08/07 01:39:38;;;;;;;5.72;2.40;;;;;;;;;;5013921;28;20033;-94
2023/08/07 01:42:07;;;;;;;5.45;3.00;;;;;;;;;;4997244;28;20033;-94
2023/08/07 01:44:33;;;;;;;7.82;2.45;;;;;;;;;;4996896;28;20021;-94
2023/08/07 01:47:09;;;;;;;4.75;2.70;;;;;;;;;;5012304;28;20280;-94
2023/08/07 01:49:36;;;;;;;3.28;2.30;;;;;;;;;;5012685;28;20484;-95
2023/08/07 01:52:03;;;;;;;11.27;2.88;;;;;;;;;;5018434;28;20480;-95
2023/08/07 01:54:29;;;;;;;5.05;2.70;;;;;;;;;;5000682;28;20032;-93
2023/08/07 01:56:55;;;;;;;5.70;3.03;;;;;;;;;;4992541;28;20040;-93
2023/08/07 01:59:21;;;;;;;7.88;2.42;;;;;;;;;;4998064;28;20046;-92
2023/08/07 02:02:03;;;;;;;7.05;2.30;;;;;;;;;;5013820;28;20478;-92
2023/08/07 02:04:29;;;;;;;4.07;2.30;;;;;;;;;;5017519;28;20025;-93
2023/08/07 02:06:56;;;;;;;6.82;2.63;;;;;;;;;;5012981;28;20033;-92
2023/08/07 02:09:22;;;;;;;10.43;2.90;;;;;;;;;;5012985;28;20481;-93
2023/08/07 02:11:50;;;;;;;10.70;2.78;;;;;;;;;;4995853;28;20512;-93
2023/08/07 02:14:16;;;;;;;11.52;3.05;;;;;;;;;;4999795;28;20435;-93
2023/08/07 02:16:42;;;;;;;9.98;3.67;;;;;;;;;;5012402;28;20037;-94
2023/08/07 02:19:11;;;;;;;11.57;3.15;;;;;;;;;;5022704;28;20093;-94
2023/08/07 02:21:37;;;;;;;7.03;3.55;;;;;;;;;;5013006;28;20038;-93
2023/08/07 02:24:03;;;;;;;8.57;3.35;;;;;;;;;;5008421;28;20028;-94
2023/08/07 02:26:36;;;;;;;6.88;3.05;;;;;;;;;;5011940;28;20571;-93
2023/08/07 02:29:03;;;;;;;14.00;3.72;;;;;;;;;;5011982;28;20341;-93
2023/08/07 02:31:31;;;;;;;5.75;3.20;;;;;;;;;;4991883;28;20057;-92
2023/08/07 02:33:57;;;;;;;14.02;3.40;;;;;;;;;;5007798;28;20124;-92
2023/08/07 02:36:24;;;;;;;10.73;3.47;;;;;;;;;;4997968;28;20033;-93
2023/08/07 02:38:50;;;;;;;16.92;3.97;;;;;;;;;;4995885;28;20072;-93
2023/08/07 02:41:16;;;;;;;11.13;3.20;;;;;;;;;;5012112;28;20029;-93
2023/08/07 02:43:42;;;;;;;10.75;4.03;;;;;;;;;;4990197;28;20656;-93
2023/08/07 02:46:09;;;;;;;13.07;3.75;;;;;;;;;;5014763;28;20056;-93
2023/08/07 02:48:35;;;;;;;11.23;3.33;;;;;;;;;;4988842;28;20084;-93
2023/08/07 02:51:01;;;;;;;9.25;2.58;;;;;;;;;;4996608;28;20038;-93
2023/08/07 02:53:31;;;;;;;9.27;3.25;;;;;;;;;;4996057;28;20033;-93
2023/08/07 02:55:57;;;;;;;12.55;3.00;;;;;;;;;;4996870;28;20421;-93
2023/08/07 02:58:23;;;;;;;23.38;3.58;;;;;;;;;;5013561;28;20509;-93
2023/08/07 03:00:49;;;;;;;12.35;2.75;;;;;;;;;;4994078;28;20376;-94
2023/08/07 03:03:16;;;;;;;7.95;2.70;;;;;;;;;;4993117;28;20026;-94
2023/08/07 03:05:49;;;;;;;13.63;3.00;;;;;;;;;;5013933;28;20151;-95
2023/08/07 03:08:15;;;;;;;13.82;2.63;;;;;;;;;;5010031;28;20374;-94
2023/08/07 03:10:41;;;;;;;11.10;2.70;;;;;;;;;;5009547;28;20481;-95
2023/08/07 03:13:07;;;;;;;15.73;3.55;;;;;;;;;;4992280;28;20049;-94
2023/08/07 03:15:33;;;;;;;8.52;3.22;;;;;;;;;;4993969;28;20041;-94
2023/08/07 03:18:02;;;;;;;10.63;2.55;;;;;;;;;;4999228;28;20049;-94
2023/08/07 03:20:28;;;;;;;14.25;3.13;;;;;;;;;;5013654;28;20025;-94
2023/08/07 03:22:54;;;;;;;21.80;3.25;;;;;;;;;;5015381;28;20040;-94
2023/08/07 03:25:22;;;;;;;12.88;3.13;;;;;;;;;;4994336;28;20038;-94
2023/08/07 03:27:49;;;;;;;8.25;2.88;;;;;;;;;;5014947;28;20397;-93
2023/08/07 03:30:15;;;;;;;8.48;2.88;;;;;;;;;;5001330;28;20045;-93
2023/08/07 03:32:57;;;;;;;10.93;2.63;;;;;;;;;;4999134;28;20520;-93
2023/08/07 03:35:23;;;;;;;10.65;2.72;;;;;;;;;;4993843;28;20038;-94
2023/08/07 03:37:50;;;;;;;9.55;2.08;;;;;;;;;;5000017;28;20048;-94
2023/08/07 03:40:19;;;;;;;6.63;2.05;;;;;;;;;;4994235;28;20703;-94
2023/08/07 03:42:46;;;;;;;7.78;2.42;;;;;;;;;;5000753;28;20041;-94
2023/08/07 03:45:15;;;;;;;15.23;2.90;;;;;;;;;;5007962;28;20054;-94
2023/08/07 03:47:44;;;;;;;10.77;2.58;;;;;;;;;;5007685;28;20576;-94
2023/08/07 03:50:10;;;;;;;12.18;2.50;;;;;;;;;;5012788;28;20029;-94
2023/08/07 03:52:36;;;;;;;35.63;3.47;;;;;;;;;;4995035;28;20486;-94
2023/08/07 03:55:02;;;;;;;14.85;2.55;;;;;;;;;;5010721;28;20034;-96
2023/08/07 03:57:28;;;;;;;11.40;2.60;;;;;;;;;;4988241;28;20139;-94
2023/08/07 03:59:54;;;;;;;11.88;2.58;;;;;;;;;;5015962;28;20033;-94
2023/08/07 04:02:20;;;;;;;11.43;3.05;;;;;;;;;;4998231;28;20433;-93
2023/08/07 04:04:53;;;;;;;16.38;2.80;;;;;;;;;;5014145;28;20046;-94
2023/08/07 04:07:27;;;;;;;15.63;2.90;;;;;;;;;;4994662;28;20030;-93
2023/08/07 04:09:53;;;;;;;16.02;4.15;;;;;;;;;;4999736;28;20042;-93
2023/08/07 04:12:23;;;;;;;20.83;3.30;;;;;;;;;;5026744;28;20462;-94
2023/08/07 04:14:49;;;;;;;12.25;2.88;;;;;;;;;;4998894;28;20026;-94
2023/08/07 04:17:15;;;;;;;15.10;2.95;;;;;;;;;;5002596;28;20041;-94
2023/08/07 04:19:42;;;;;;;12.65;2.83;;;;;;;;;;5017553;28;20037;-94
2023/08/07 04:22:09;;;;;;;16.33;2.95;;;;;;;;;;4997676;28;20432;-93
2023/08/07 04:24:36;;;;;;;11.57;3.45;;;;;;;;;;4996833;28;20062;-94
2023/08/07 04:27:03;;;;;;;14.35;3.42;;;;;;;;;;5014806;28;20030;-95
2023/08/07 04:29:29;;;;;;;19.02;3.53;;;;;;;;;;5006000;28;20525;-95
2023/08/07 04:31:56;;;;;;;17.25;4.03;;;;;;;;;;5013825;28;20037;-94
2023/08/07 04:34:22;;;;;;;23.88;3.33;;;;;;;;;;5021404;28;20132;-94
2023/08/07 04:36:51;;;;;;;19.08;3.33;;;;;;;;;;4994306;28;20048;-95
2023/08/07 04:39:18;;;;;;;16.58;3.92;;;;;;;;;;5000671;28;20048;-93
2023/08/07 04:41:44;;;;;;;25.80;3.92;;;;;;;;;;5015311;28;20021;-93
2023/08/07 04:44:12;;;;;;;22.23;3.72;;;;;;;;;;4997765;28;20041;-94
2023/08/07 04:46:38;;;;;;;18.50;4.07;;;;;;;;;;5000066;28;20544;-94
2023/08/07 04:49:05;;;;;;;19.42;4.10;;;;;;;;;;4998387;28;20370;-94
2023/08/07 04:51:32;;;;;;;20.10;3.47;;;;;;;;;;5025562;28;20477;-94
2023/08/07 04:53:58;;;;;;;16.92;3.40;;;;;;;;;;5000698;28;20041;-94
2023/08/07 04:56:24;;;;;;;17.48;3.17;;;;;;;;;;5012939;28;20041;-93
2023/08/07 04:58:51;;;;;;;6.00;2.63;;;;;;;;;;4996880;28;20525;-94
2023/08/07 05:01:17;;;;;;;22.63;3.63;;;;;;;;;;4992235;28;20034;-94
2023/08/07 05:03:43;;;;;;;15.40;3.20;;;;;;;;;;4998814;28;20038;-93
2023/08/07 05:06:09;;;;;;;21.30;3.00;;;;;;;;;;5003619;28;20037;-93
2023/08/07 05:08:36;;;;;;;19.05;3.72;;;;;;;;;;4997029;28;20098;-94
2023/08/07 05:11:02;;;;;;;26.10;3.15;;;;;;;;;;5016937;28;20036;-94
2023/08/07 05:13:28;;;;;;;11.07;3.45;;;;;;;;;;5012139;28;20096;-93
2023/08/07 05:15:54;;;;;;;12.20;3.67;;;;;;;;;;5015946;28;20033;-94
2023/08/07 05:18:23;;;;;;;28.52;3.70;;;;;;;;;;5000280;28;20057;-94
2023/08/07 05:20:49;;;;;;;16.85;3.42;;;;;;;;;;4999582;28;20085;-94
2023/08/07 05:23:15;;;;;;;20.23;3.85;;;;;;;;;;4997819;28;20018;-93
2023/08/07 05:25:48;;;;;;;13.55;3.50;;;;;;;;;;4998380;28;20029;-94
2023/08/07 05:28:14;;;;;;;28.13;4.53;;;;;;;;;;5010596;28;20033;-93
2023/08/07 05:30:40;;;;;;;21.08;4.30;;;;;;;;;;4999182;28;20036;-93
2023/08/07 05:33:06;;;;;;;22.88;3.55;;;;;;;;;;5011584;28;20244;-93
2023/08/07 05:35:33;;;;;;;22.52;3.88;;;;;;;;;;4996860;28;20045;-93
2023/08/07 05:37:59;;;;;;;24.40;4.53;;;;;;;;;;5001146;28;20037;-93
2023/08/07 05:40:25;;;;;;;25.40;4.38;;;;;;;;;;4997367;28;20049;-93
2023/08/07 05:42:51;;;;;;;30.90;4.60;;;;;;;;;;5001688;28;20045;-93
2023/08/07 05:45:25;;;;;;;23.48;4.13;;;;;;;;;;4996958;28;20025;-93
2023/08/07 05:48:03;;;;;;;14.18;4.15;;;;;;;;;;4997651;28;20080;-93
2023/08/07 05:50:35;;;;;;;38.28;4.38;;;;;;;;;;4988660;28;20057;-93
2023/08/07 05:53:05;;;;;;;30.05;4.60;;;;;;;;;;4996214;28;20038;-94
2023/08/07 05:55:31;;;;;;;14.65;3.17;;;;;;;;;;4998646;28;20030;-94
2023/08/07 05:57:57;;;;;;;21.38;3.70;;;;;;;;;;4997762;28;20037;-94
2023/08/07 06:00:25;;;;;;;17.67;3.08;;;;;;;;;;4994149;28;20101;-94
2023/08/07 06:02:54;;;;;;;18.17;3.55;;;;;;;;;;5008054;28;20076;-93
2023/08/07 06:05:20;;;;;;;13.85;3.40;;;;;;;;;;5012307;28;20053;-94
2023/08/07 06:07:46;;;;;;;15.52;3.22;;;;;;;;;;5001661;28;20029;-94
2023/08/07 06:10:12;;;;;;;17.02;3.35;;;;;;;;;;4995078;28;20033;-94
2023/08/07 06:12:41;;;;;;;13.30;4.15;;;;;;;;;;5012491;28;20025;-94
2023/08/07 06:15:08;;;;;;;13.38;3.03;;;;;;;;;;4997857;28;20056;-93
2023/08/07 06:17:34;;;;;;;12.48;2.78;;;;;;;;;;4997306;28;20307;-94
2023/08/07 06:20:14;;;;;;;16.08;2.90;;;;;;;;;;5001880;28;20460;-94
2023/08/07 06:22:40;;;;;;;23.08;2.85;;;;;;;;;;4990846;28;20038;-94
2023/08/07 06:25:07;;;;;;;16.67;3.30;;;;;;;;;;5025964;28;20026;-94
2023/08/07 06:27:34;;;;;;;16.40;2.72;;;;;;;;;;4991566;28;20030;-94
2023/08/07 06:30:01;;;;;;;11.73;2.33;;;;;;;;;;5009488;28;20497;-95
2023/08/07 06:32:28;;;;;;;13.75;2.97;;;;;;;;;;4988276;28;20443;-94
2023/08/07 06:35:07;;;;;;;20.23;3.10;;;;;;;;;;5007571;28;20042;-96
2023/08/07 06:37:34;;;;;;;12.65;2.92;;;;;;;;;;4991346;28;20971;-95
2023/08/07 06:40:02;;;;;;;20.20;3.60;;;;;;;;;;5007158;28;20115;-94
2023/08/07 06:42:28;;;;;;;10.90;3.13;;;;;;;;;;4995338;28;20034;-95
2023/08/07 06:44:56;;;;;;;7.50;2.13;;;;;;;;;;4994374;28;20033;-96
2023/08/07 06:47:22;;;;;;;16.98;3.20;;;;;;;;;;4993084;28;20409;-96
2023/08/07 06:49:48;;;;;;;12.23;2.30;;;;;;;;;;5007066;28;20408;-96
2023/08/07 06:52:14;;;;;;;10.10;2.83;;;;;;;;;;4991512;28;20076;-96
2023/08/07 06:54:41;;;;;;;15.25;3.03;;;;;;;;;;4991584;28;20034;-95
2023/08/07 06:57:07;;;;;;;10.63;2.60;;;;;;;;;;4986832;28;20038;-95
2023/08/07 06:59:33;;;;;;;19.70;3.50;;;;;;;;;;4987681;28;20033;-95
2023/08/07 07:01:59;;;;;;;12.43;2.60;;;;;;;;;;5004486;28;20512;-96
2023/08/07 07:04:28;;;;;;;13.30;2.38;;;;;;;;;;5002074;28;20112;-96
2023/08/07 07:06:57;;;;;;;13.73;2.67;;;;;;;;;;5027205;28;20112;-95
2023/08/07 07:09:23;;;;;;;9.23;2.50;;;;;;;;;;4997220;28;20069;-95
2023/08/07 07:11:49;;;;;;;15.15;2.97;;;;;;;;;;5010707;28;20026;-96
2023/08/07 07:14:15;;;;;;;23.58;3.65;;;;;;;;;;5007277;28;20034;-95
2023/08/07 07:16:43;;;;;;;8.50;2.72;;;;;;;;;;5026164;28;20029;-95
2023/08/07 07:19:12;;;;;;;14.68;2.90;;;;;;;;;;5006706;28;20502;-96
2023/08/07 07:21:38;;;;;;;22.80;4.05;;;;;;;;;;5000332;28;20092;-96
2023/08/07 07:24:05;;;;;;;9.75;2.72;;;;;;;;;;5010336;28;20035;-95
2023/08/07 07:26:37;;;;;;;11.85;3.05;;;;;;;;;;5015139;28;20030;-95
2023/08/07 07:29:06;;;;;;;9.70;2.75;;;;;;;;;;4992921;28;20038;-95
2023/08/07 07:31:33;;;;;;;17.40;2.85;;;;;;;;;;5023896;28;20038;-96
2023/08/07 07:34:13;;;;;;;12.02;2.83;;;;;;;;;;4997238;28;20049;-95
2023/08/07 07:36:39;;;;;;;8.05;2.58;;;;;;;;;;5023471;28;20032;-96
2023/08/07 07:39:05;;;;;;;15.57;2.67;;;;;;;;;;5001793;28;20046;-96
2023/08/07 07:41:32;;;;;;;15.38;3.40;;;;;;;;;;5017437;28;20042;-96
2023/08/07 07:43:58;;;;;;;6.35;2.28;;;;;;;;;;5014665;28;20155;-95
2023/08/07 07:46:24;;;;;;;9.70;2.60;;;;;;;;;;5017996;28;20033;-94
2023/08/07 07:48:51;;;;;;;16.42;3.22;;;;;;;;;;5017362;28;20042;-95
2023/08/07 07:51:17;;;;;;;11.55;2.80;;;;;;;;;;5016355;28;20029;-94
2023/08/07 07:53:43;;;;;;;13.52;2.30;;;;;;;;;;4996664;28;20049;-94
2023/08/07 07:56:10;;;;;;;5.45;2.22;;;;;;;;;;4997173;28;20449;-95
2023/08/07 07:58:36;;;;;;;14.95;3.25;;;;;;;;;;4999369;28;20505;-94
2023/08/07 08:01:02;;;;;;;10.77;2.83;;;;;;;;;;4998247;28;20044;-93
2023/08/07 08:03:29;;;;;;;11.80;2.35;;;;;;;;;;4996492;28;20022;-93
2023/08/07 08:05:55;;;;;;;10.05;2.78;;;;;;;;;;5015018;28;20059;-95
2023/08/07 08:08:21;;;;;;;13.40;3.20;;;;;;;;;;4991961;28;20033;-94
2023/08/07 08:10:48;;;;;;;14.02;2.65;;;;;;;;;;4996198;28;20034;-94
2023/08/07 08:13:15;;;;;;;13.85;2.95;;;;;;;;;;5011691;28;20078;-94
2023/08/07 08:15:43;;;;;;;11.10;3.22;;;;;;;;;;4998295;28;20033;-93
2023/08/07 08:18:11;;;;;;;10.63;2.63;;;;;;;;;;4996032;28;20040;-93
2023/08/07 08:20:38;;;;;;;15.23;3.40;;;;;;;;;;4998292;28;20033;-94
2023/08/07 08:23:04;;;;;;;10.38;2.58;;;;;;;;;;4996510;28;20034;-95
2023/08/07 08:25:31;;;;;;;9.80;2.97;;;;;;;;;;5001657;28;20041;-96
2023/08/07 08:27:57;;;;;;;6.85;2.90;;;;;;;;;;4988398;28;20014;-94
2023/08/07 08:30:29;;;;;;;10.85;3.20;;;;;;;;;;4997204;28;20045;-94
2023/08/07 08:32:55;;;;;;;9.38;2.40;;;;;;;;;;4993518;28;20037;-94
2023/08/07 08:35:28;;;;;;;16.75;2.58;;;;;;;;;;5009700;28;20042;-94
2023/08/07 08:38:19;;;;;;;12.48;3.38;;;;;;;;;;4991510;28;20046;-94
2023/08/07 08:40:46;;;;;;;9.13;2.40;;;;;;;;;;5011457;28;20112;-94
2023/08/07 08:43:14;;;;;;;9.23;1.85;;;;;;;;;;5010065;28;20524;-94
2023/08/07 08:45:47;;;;;;;12.05;2.80;;;;;;;;;;5010436;28;20478;-94
2023/08/07 08:48:17;;;;;;;7.57;1.95;;;;;;;;;;5010035;28;20560;-94
2023/08/07 08:50:50;;;;;;;9.02;2.13;;;;;;;;;;5012369;28;20151;-93
2023/08/07 08:53:16;;;;;;;13.48;2.63;;;;;;;;;;4993850;28;20053;-90
2023/08/07 08:56:01;;;;;;;9.98;1.98;;;;;;;;;;4994826;28;20049;-91
2023/08/07 09:01:14;;;;;;;11.32;1.63;;;;;;;;;;5012213;28;20088;-92
2023/08/07 09:03:45;;;;;;;11.07;2.03;;;;;;;;;;5012982;28;20048;-91
2023/08/07 09:06:12;;;;;;;6.65;2.92;;;;;;;;;;5008436;28;20033;-91
2023/08/07 09:08:41;;;;;;;8.20;2.20;;;;;;;;;;5011575;28;20041;-91
2023/08/07 09:11:11;;;;;;;5.85;2.13;;;;;;;;;;5005063;28;20069;-91
2023/08/07 09:13:44;;;;;;;11.63;3.45;;;;;;;;;;4992141;28;20034;-93
2023/08/07 09:16:12;;;;;;;12.10;2.40;;;;;;;;;;5013090;28;20359;-93
2023/08/07 09:18:42;;;;;;;12.43;2.53;;;;;;;;;;5014712;28;20660;-92
2023/08/07 09:21:08;;;;;;;5.72;2.25;;;;;;;;;;5015073;28;20055;-92
2023/08/07 09:23:37;;;;;;;14.20;2.60;;;;;;;;;;4996478;28;20049;-93
2023/08/07 09:26:04;;;;;;;8.25;2.80;;;;;;;;;;5003207;28;20040;-92
2023/08/07 09:28:31;;;;;;;9.75;2.25;;;;;;;;;;5009868;28;20041;-92
2023/08/07 09:30:57;;;;;;;8.43;2.05;;;;;;;;;;5012550;28;20080;-92
2023/08/07 09:33:28;;;;;;;8.55;2.70;;;;;;;;;;4985969;28;20041;-93
2023/08/07 09:35:58;;;;;;;7.68;2.72;;;;;;;;;;5014844;28;20061;-93
2023/08/07 09:38:27;;;;;;;10.07;2.45;;;;;;;;;;5012102;28;20041;-93
2023/08/07 09:40:53;;;;;;;8.23;2.38;;;;;;;;;;4999319;28;20041;-93
2023/08/07 09:43:29;;;;;;;14.82;2.42;;;;;;;;;;4997266;28;20033;-93
2023/08/07 09:46:05;;;;;;;7.30;2.50;;;;;;;;;;4997795;28;20079;-93
2023/08/07 09:48:34;;;;;;;14.68;2.25;;;;;;;;;;5011351;28;20075;-92
2023/08/07 09:51:06;;;;;;;9.73;2.42;;;;;;;;;;4993067;28;20040;-92
2023/08/07 09:53:32;;;;;;;9.73;2.17;;;;;;;;;;5004211;28;20151;-92
2023/08/07 09:55:59;;;;;;;5.65;2.20;;;;;;;;;;4987803;28;20098;-90
2023/08/07 09:58:28;;;;;;;7.05;2.05;;;;;;;;;;4993679;28;20040;-91
2023/08/07 10:00:55;;;;;;;10.23;1.80;;;;;;;;;;5012297;28;20064;-92
2023/08/07 10:03:31;;;;;;;6.95;2.20;;;;;;;;;;5016374;28;20025;-94
2023/08/07 10:05:58;;;;;;;11.68;2.22;;;;;;;;;;5015310;28;20032;-90
2023/08/07 10:08:25;;;;;;;5.85;2.10;;;;;;;;;;5016315;28;20040;-91
2023/08/07 10:10:52;;;;;;;15.05;2.92;;;;;;;;;;5000860;28;20037;-90
2023/08/07 10:13:18;;;;;;;7.97;1.98;;;;;;;;;;5009290;28;20036;-90
2023/08/07 10:15:48;;;;;;;15.48;2.63;;;;;;;;;;5000268;28;20098;-90
2023/08/07 10:18:14;;;;;;;10.50;2.25;;;;;;;;;;5002000;28;20037;-90
2023/08/07 10:20:59;;;;;;;3.67;1.92;;;;;;;;;;4999364;28;20037;-91
2023/08/07 10:23:25;;;;;;;10.65;2.20;;;;;;;;;;5012936;28;20489;-90
2023/08/07 10:25:52;;;;;;;8.55;2.65;;;;;;;;;;5001175;28;20100;-91
2023/08/07 10:28:23;;;;;;;6.15;2.28;;;;;;;;;;5019886;28;20032;-91
2023/08/07 10:30:50;;;;;;;8.18;3.13;;;;;;;;;;5005770;28;20374;-89
2023/08/07 10:33:17;;;;;;;5.32;2.53;;;;;;;;;;4986822;28;20030;-91
2023/08/07 10:35:48;;;;;;;13.63;2.67;;;;;;;;;;5005147;28;20056;-90
2023/08/07 10:38:23;;;;;;;12.45;3.20;;;;;;;;;;4997842;28;20915;-90
2023/08/07 10:41:08;;;;;;;12.25;2.47;;;;;;;;;;5003839;28;20030;-91
2023/08/07 10:43:38;;;;;;;7.93;2.38;;;;;;;;;;5001918;28;20056;-90
2023/08/07 10:46:12;;;;;;;9.23;2.53;;;;;;;;;;4987798;28;20104;-90
2023/08/07 10:48:46;;;;;;;10.30;2.28;;;;;;;;;;5008699;28;20025;-91
2023/08/07 10:51:18;;;;;;;9.02;2.55;;;;;;;;;;5006837;28;20043;-91
2023/08/07 10:53:46;;;;;;;12.43;3.00;;;;;;;;;;5005914;28;20034;-91
2023/08/07 10:56:16;;;;;;;4.50;1.50;;;;;;;;;;4987153;28;20064;-91
2023/08/07 10:58:42;;;;;;;11.95;2.20;;;;;;;;;;5004317;28;20682;-91
2023/08/07 11:01:26;;;;;;;6.75;1.70;;;;;;;;;;4986966;28;20038;-91
2023/08/07 11:03:55;;;;;;;3.17;1.77;;;;;;;;;;5021179;28;20034;-90
2023/08/07 11:06:26;;;;;;;3.45;1.48;;;;;;;;;;5001940;28;20029;-91
2023/08/07 11:08:52;;;;;;;10.23;1.98;;;;;;;;;;5007022;28;20148;-91
2023/08/07 11:11:19;;;;;;;3.33;1.60;;;;;;;;;;4991709;28;20030;-90
2023/08/07 11:13:45;;;;;;;5.50;2.00;;;;;;;;;;5005170;28;20030;-90
2023/08/07 11:16:11;;;;;;;12.05;1.80;;;;;;;;;;5004439;28;20068;-90
2023/08/07 11:18:41;;;;;;;30.33;4.13;;;;;;;;;;5005115;28;20494;-90
2023/08/07 11:21:10;;;;;;;9.38;2.22;;;;;;;;;;5000464;28;20030;-91
2023/08/07 11:23:37;;;;;;;8.05;2.13;;;;;;;;;;5002990;28;20034;-91
2023/08/07 11:26:03;;;;;;;4.88;1.95;;;;;;;;;;4990067;28;20026;-91
2023/08/07 11:28:31;;;;;;;10.57;2.60;;;;;;;;;;5004665;28;20208;-90
2023/08/07 11:30:58;;;;;;;11.52;2.03;;;;;;;;;;5006034;28;20030;-90
2023/08/07 11:33:24;;;;;;;5.72;1.63;;;;;;;;;;4989700;28;20075;-90
2023/08/07 11:35:58;;;;;;;10.77;2.25;;;;;;;;;;4989177;28;20087;-91
2023/08/07 11:38:31;;;;;;;8.10;1.92;;;;;;;;;;5019945;28;20041;-91
2023/08/07 11:41:09;;;;;;;8.15;2.50;;;;;;;;;;5010601;28;20049;-90
2023/08/07 11:43:35;;;;;;;9.98;2.90;;;;;;;;;;5007700;28;20385;-91
2023/08/07 11:46:02;;;;;;;8.38;1.77;;;;;;;;;;4993748;28;20551;-90
2023/08/07 11:48:29;;;;;;;15.30;2.03;;;;;;;;;;4993062;28;20128;-91
2023/08/07 11:50:55;;;;;;;8.80;2.13;;;;;;;;;;5012154;28;20045;-90
2023/08/07 11:53:33;;;;;;;5.60;1.75;;;;;;;;;;4991119;28;20418;-90
2023/08/07 11:56:00;;;;;;;3.38;1.35;;;;;;;;;;5027538;28;20025;-90
2023/08/07 11:58:37;;;;;;;3.45;1.50;;;;;;;;;;5012789;28;20068;-90
2023/08/07 12:01:10;;;;;;;4.63;1.30;;;;;;;;;;4997544;28;20025;-90
2023/08/07 12:03:38;;;;;;;9.20;1.65;;;;;;;;;;4994157;28;21530;-90
2023/08/07 12:06:08;;;;;;;3.55;1.63;;;;;;;;;;5010404;28;20026;-91
2023/08/07 12:08:41;;;;;;;6.90;1.52;;;;;;;;;;5024624;28;20048;-90
2023/08/07 12:11:09;;;;;;;12.63;3.08;;;;;;;;;;4997665;28;20104;-90
2023/08/07 12:13:40;;;;;;;7.18;2.25;;;;;;;;;;5031582;28;20045;-90
2023/08/07 12:16:08;;;;;;;6.55;1.80;;;;;;;;;;5009857;28;20635;-90
2023/08/07 12:18:35;;;;;;;8.43;1.85;;;;;;;;;;4992433;28;20125;-90
2023/08/07 12:21:08;;;;;;;8.57;3.25;;;;;;;;;;5007816;28;20029;-90
2023/08/07 12:23:35;;;;;;;4.05;1.75;;;;;;;;;;4992142;28;20037;-89
2023/08/07 12:26:03;;;;;;;6.32;1.63;;;;;;;;;;4989792;28;20041;-87
2023/08/07 12:28:29;;;;;;;7.80;1.60;;;;;;;;;;4999248;28;20025;-88
2023/08/07 12:30:55;;;;;;;2.25;1.60;;;;;;;;;;4993631;28;20069;-89
2023/08/07 12:33:21;;;;;;;2.95;1.85;;;;;;;;;;5010404;28;20047;-88
2023/08/07 12:35:47;;;;;;;6.90;1.50;;;;;;;;;;4991157;28;20508;-88
2023/08/07 12:38:14;;;;;;;6.63;2.13;;;;;;;;;;5004293;28;20065;-88
2023/08/07 12:40:41;;;;;;;8.63;2.03;;;;;;;;;;5005821;28;20485;-89
2023/08/07 12:43:07;;;;;;;8.23;2.05;;;;;;;;;;5006798;28;20026;-88
2023/08/07 12:45:34;;;;;;;4.68;1.80;;;;;;;;;;5010867;28;20030;-88
2023/08/07 12:48:01;;;;;;;7.70;2.25;;;;;;;;;;5003596;28;20044;-88
2023/08/07 12:50:27;;;;;;;7.30;2.08;;;;;;;;;;4987444;28;20367;-88
2023/08/07 12:52:53;;;;;;;7.53;2.40;;;;;;;;;;5003210;28;20033;-88
2023/08/07 12:55:19;;;;;;;4.22;1.85;;;;;;;;;;4987466;28;20477;-89
2023/08/07 12:57:46;;;;;;;2.85;1.60;;;;;;;;;;4984515;28;20390;-88
2023/08/07 13:00:14;;;;;;;5.70;1.63;;;;;;;;;;5003613;28;20056;-87
2023/08/07 13:02:44;;;;;;;7.97;1.92;;;;;;;;;;4990524;28;20037;-88
2023/08/07 13:05:13;;;;;;;8.63;3.00;;;;;;;;;;5001510;28;20196;-89
2023/08/07 13:07:39;;;;;;;4.47;1.70;;;;;;;;;;5002997;28;20120;-89
2023/08/07 13:10:08;;;;;;;1.50;1.05;;;;;;;;;;5006845;28;20100;-89
2023/08/07 13:12:41;;;;;;;7.97;2.78;;;;;;;;;;5008645;28;20556;-91
2023/08/07 13:15:08;;;;;;;8.15;2.05;;;;;;;;;;5007247;28;20029;-90
2023/08/07 13:17:37;;;;;;;5.32;1.98;;;;;;;;;;5017145;28;20061;-89
2023/08/07 13:20:12;;;;;;;10.45;2.80;;;;;;;;;;4984510;28;20034;-90
2023/08/07 13:22:38;;;;;;;7.63;2.40;;;;;;;;;;5002396;28;20086;-90
2023/08/07 13:25:07;;;;;;;8.27;2.67;;;;;;;;;;4985644;28;20046;-89
2023/08/07 13:27:33;;;;;;;8.43;2.17;;;;;;;;;;5008119;28;20030;-89
2023/08/07 13:30:00;;;;;;;5.10;2.28;;;;;;;;;;5003444;28;20117;-89
2023/08/07 13:32:27;;;;;;;11.70;2.40;;;;;;;;;;5005991;28;20040;-89
2023/08/07 13:34:56;;;;;;;8.32;1.95;;;;;;;;;;5013692;28;20474;-93
2023/08/07 13:37:22;;;;;;;7.18;2.47;;;;;;;;;;4979688;28;20080;-93
2023/08/07 13:39:50;;;;;;;9.68;3.00;;;;;;;;;;4988904;28;20034;-92
2023/08/07 13:42:17;;;;;;;4.90;1.90;;;;;;;;;;4994657;28;20030;-92
2023/08/07 13:44:43;;;;;;;8.43;2.22;;;;;;;;;;4979180;28;20421;-92
2023/08/07 13:47:12;;;;;;;3.90;1.75;;;;;;;;;;4978512;28;20037;-92
2023/08/07 13:49:39;;;;;;;6.15;2.55;;;;;;;;;;4975780;28;20114;-93
2023/08/07 13:52:06;;;;;;;6.03;1.75;;;;;;;;;;4986707;28;20046;-92
2023/08/07 13:54:32;;;;;;;5.18;1.85;;;;;;;;;;4996671;28;20026;-92
2023/08/07 13:56:58;;;;;;;7.03;2.10;;;;;;;;;;4993333;28;20060;-91
2023/08/07 13:59:24;;;;;;;9.60;2.25;;;;;;;;;;4993697;28;20042;-92
2023/08/07 14:01:51;;;;;;;10.48;3.95;;;;;;;;;;4974127;28;20122;-91
2023/08/07 14:04:18;;;;;;;6.85;2.25;;;;;;;;;;4981459;28;20459;-93
2023/08/07 14:06:50;;;;;;;13.05;2.75;;;;;;;;;;4994860;28;20029;-92
2023/08/07 14:09:18;;;;;;;9.20;2.83;;;;;;;;;;5006672;28;20124;-93
2023/08/07 14:11:45;;;;;;;8.30;2.05;;;;;;;;;;4974007;28;20064;-91
2023/08/07 14:14:12;;;;;;;6.65;1.90;;;;;;;;;;4976071;28;20037;-91
2023/08/07 14:16:38;;;;;;;8.45;2.78;;;;;;;;;;4987294;28;20034;-92
2023/08/07 14:19:05;;;;;;;8.95;2.08;;;;;;;;;;4995220;28;20132;-91
2023/08/07 14:21:31;;;;;;;6.07;1.75;;;;;;;;;;4988690;28;20038;-91
2023/08/07 14:24:00;;;;;;;19.52;2.70;;;;;;;;;;4978378;28;20478;-91
2023/08/07 14:26:29;;;;;;;3.75;1.85;;;;;;;;;;4970268;28;20033;-91
2023/08/07 14:28:55;;;;;;;6.50;2.13;;;;;;;;;;4991391;28;20034;-92
2023/08/07 14:31:21;;;;;;;8.25;2.20;;;;;;;;;;4987252;28;20514;-92
2023/08/07 14:33:47;;;;;;;4.80;1.92;;;;;;;;;;4974376;28;20034;-91
2023/08/07 14:36:14;;;;;;;5.30;2.10;;;;;;;;;;4977649;28;20052;-92
2023/08/07 14:38:41;;;;;;;6.90;2.00;;;;;;;;;;4995107;28;20064;-91
2023/08/07 14:41:07;;;;;;;4.53;1.60;;;;;;;;;;5001894;28;20034;-91
2023/08/07 14:43:33;;;;;;;7.30;2.33;;;;;;;;;;5002267;28;20034;-89
2023/08/07 14:45:59;;;;;;;5.85;1.80;;;;;;;;;;4985202;28;20030;-89